Time;durP1;ratioP1;P1;durP2;ratioP2;P2;SDS_P1;SDS_P2;PMS_P1;PMS_P2;Temp;Humidity;BMP_temperature;BMP_pressure;BME280_temperature;BME280_humidity;BME280_pressure;Samples;Min_cycle;Max_cycle;Signal;HPM_P1;HPM_P2
2023/09/20 00:02:17;;;;;;;;;1.00;1.00;;;;;23.93;47.65;100707.91;4938153;28;45303;-42
2023/09/20 00:04:43;;;;;;;;;0.75;0.00;;;;;23.94;47.59;100708.75;4952476;28;51213;-42
2023/09/20 00:07:08;;;;;;;;;0.00;0.00;;;;;23.94;47.34;100701.66;4937870;28;45291;-43
2023/09/20 00:09:34;;;;;;;;;0.50;0.50;;;;;23.95;47.52;100705.19;4937635;28;45217;-41
2023/09/20 00:11:59;;;;;;;;;1.25;0.75;;;;;23.95;47.24;100705.19;4937978;28;45346;-39
2023/09/20 00:14:25;;;;;;;;;0.00;0.00;;;;;23.96;47.71;100708.66;4937636;28;46280;-45
2023/09/20 00:16:52;;;;;;;;;0.00;0.00;;;;;23.95;47.69;100699.91;4937338;28;45315;-47
2023/09/20 00:19:18;;;;;;;;;0.50;0.50;;;;;23.96;47.76;100704.25;4937060;28;45461;-40
2023/09/20 00:21:44;;;;;;;;;0.00;0.00;;;;;23.96;47.63;100698.94;4937912;28;45518;-42
2023/09/20 00:24:09;;;;;;;;;0.00;0.00;;;;;23.97;47.38;100698.00;4937494;28;46175;-42
2023/09/20 00:26:34;;;;;;;;;1.00;0.50;;;;;23.97;47.31;100697.13;4920010;28;45472;-41
2023/09/20 00:29:07;;;;;;;;;0.00;0.00;;;;;23.97;48.15;100697.13;4937696;28;45342;-42
2023/09/20 00:31:33;;;;;;;;;1.00;1.00;;;;;23.96;47.87;100691.00;4937395;28;45418;-39
2023/09/20 00:34:03;;;;;;;;;1.00;1.00;;;;;23.96;47.79;100683.06;4920085;28;46592;-43
2023/09/20 00:36:29;;;;;;;;;3.00;0.00;;;;;23.96;47.64;100685.72;4937378;28;45790;-41
2023/09/20 00:38:54;;;;;;;;;0.00;0.00;;;;;23.95;47.76;100684.00;4937400;28;45330;-39
2023/09/20 00:41:21;;;;;;;;;1.75;0.00;;;;;23.93;48.23;100675.31;4937674;28;45538;-43
2023/09/20 00:43:46;;;;;;;;;0.25;0.00;;;;;23.94;47.82;100684.94;4937219;28;46144;-41
2023/09/20 00:46:12;;;;;;;;;0.00;0.00;;;;;23.92;48.26;100678.91;4936589;28;66836;-43
2023/09/20 00:48:39;;;;;;;;;0.00;0.00;;;;;23.92;48.17;100677.09;4937157;28;45458;-41
2023/09/20 00:51:09;;;;;;;;;0.50;0.00;;;;;23.94;48.21;100677.00;4937560;28;45556;-41
2023/09/20 00:53:35;;;;;;;;;0.00;0.00;;;;;23.94;47.68;100677.00;4938496;28;45586;-41
2023/09/20 00:56:03;;;;;;;;;1.75;0.00;;;;;23.94;47.97;100671.69;4940753;28;45738;-42
2023/09/20 00:58:29;;;;;;;;;1.00;1.00;;;;;23.94;48.59;100677.00;4940793;28;45409;-38
2023/09/20 01:00:56;;;;;;;;;1.25;0.00;;;;;23.93;47.84;100670.00;4940647;28;45175;-39
2023/09/20 01:03:23;;;;;;;;;0.75;0.00;;;;;23.92;48.02;100670.97;4940433;28;47131;-40
2023/09/20 01:05:50;;;;;;;;;1.00;0.00;;;;;23.90;48.65;100664.94;4940653;28;45271;-41
2023/09/20 01:08:19;;;;;;;;;1.00;1.00;;;;;23.89;48.42;100660.59;4940874;28;45406;-40
2023/09/20 01:10:45;;;;;;;;;0.50;0.50;;;;;23.90;48.33;100659.63;4940621;28;45595;-41
2023/09/20 01:13:12;;;;;;;;;1.25;0.00;;;;;23.90;48.36;100660.50;4940183;28;46946;-38
2023/09/20 01:15:38;;;;;;;;;0.00;0.00;;;;;23.90;48.74;100657.00;4940132;28;45700;-42
2023/09/20 01:18:04;;;;;;;;;1.00;1.00;;;;;23.88;48.59;100657.09;4940538;28;45312;-42
2023/09/20 01:20:31;;;;;;;;;1.00;0.00;;;;;23.89;48.75;100663.25;4940588;28;45567;-40
2023/09/20 01:22:58;;;;;;;;;0.75;0.75;;;;;23.88;49.13;100659.75;4940019;28;46410;-42
2023/09/20 01:25:25;;;;;;;;;0.00;0.00;;;;;23.88;48.47;100666.84;4940155;28;45419;-43
2023/09/20 01:27:55;;;;;;;;;0.00;0.00;;;;;23.85;48.96;100667.06;4940153;28;45340;-39
2023/09/20 01:30:25;;;;;;;;;1.25;0.00;;;;;23.83;48.53;100664.53;4940819;28;45535;-40
2023/09/20 01:32:52;;;;;;;;;1.00;1.00;;;;;23.82;48.76;100665.47;4922878;28;46151;-41
2023/09/20 01:35:18;;;;;;;;;0.00;0.00;;;;;23.81;48.67;100660.31;4940506;28;45247;-41
2023/09/20 01:37:45;;;;;;;;;0.75;0.75;;;;;23.78;49.30;100656.91;4939923;28;45274;-40
2023/09/20 01:40:16;;;;;;;;;0.00;0.00;;;;;23.75;48.98;100657.16;4940304;28;45357;-40
2023/09/20 01:42:54;;;;;;;;;2.00;0.50;;;;;23.74;48.75;100658.13;4939677;28;46002;-44
2023/09/20 01:45:20;;;;;;;;;0.00;0.00;;;;;23.73;49.54;100650.25;4940387;28;45330;-39
2023/09/20 01:47:50;;;;;;;;;2.00;0.25;;;;;23.72;48.96;100652.09;4940066;28;45354;-40
2023/09/20 01:50:20;;;;;;;;;0.00;0.00;;;;;23.72;49.61;100651.22;4940110;28;45312;-41
2023/09/20 01:52:54;;;;;;;;;0.50;0.50;;;;;23.69;49.04;100649.66;4939490;28;46250;-41
2023/09/20 01:55:21;;;;;;;;;0.00;0.00;;;;;23.69;49.10;100651.47;4940243;28;45341;-42
2023/09/20 01:57:54;;;;;;;;;0.00;0.00;;;;;23.67;49.70;100645.44;4939720;28;45552;-39
2023/09/20 02:00:29;;;;;;;;;0.00;0.00;;;;;23.65;49.83;100650.81;4940294;28;45470;-43
2023/09/20 02:02:57;;;;;;;;;1.00;1.00;;;;;23.66;49.23;100641.91;4939198;28;47174;-44
2023/09/20 02:05:26;;;;;;;;;0.00;0.00;;;;;23.66;49.68;100641.09;4922488;28;45700;-38
2023/09/20 02:07:57;;;;;;;;;0.25;0.25;;;;;23.64;49.89;100635.91;4939858;28;45185;-42
2023/09/20 02:10:23;;;;;;;;;0.50;0.00;;;;;23.63;49.11;100642.16;4939863;28;45497;-41
2023/09/20 02:12:53;;;;;;;;;0.00;0.00;;;;;23.61;49.41;100633.50;4939308;28;48255;-39
2023/09/20 02:15:20;;;;;;;;;0.00;0.00;;;;;23.61;49.93;100636.13;4939830;28;45715;-39
2023/09/20 02:17:46;;;;;;;;;0.75;0.00;;;;;23.58;50.00;100629.28;4939316;28;45838;-42
2023/09/20 02:20:13;;;;;;;;;2.00;0.00;;;;;23.57;50.03;100622.28;4939764;28;45343;-40
2023/09/20 02:22:39;;;;;;;;;1.00;0.00;;;;;23.56;49.57;100617.94;4939065;28;46392;-39
2023/09/20 02:25:11;;;;;;;;;0.00;0.00;;;;;23.56;50.12;100614.44;4922065;28;45884;-39
2023/09/20 02:27:43;;;;;;;;;2.00;0.00;;;;;23.56;49.68;100610.00;4939228;28;45355;-39
2023/09/20 02:30:16;;;;;;;;;0.00;0.00;;;;;23.56;49.67;100611.78;4939563;28;45267;-43
2023/09/20 02:32:42;;;;;;;;;0.00;0.00;;;;;23.56;50.25;100609.16;4938817;28;46257;-42
2023/09/20 02:35:08;;;;;;;;;0.00;0.00;;;;;23.56;50.16;100611.78;4939132;28;45771;-40
2023/09/20 02:37:34;;;;;;;;;0.50;0.00;;;;;23.56;50.13;100617.09;4939248;28;45430;-39
2023/09/20 02:40:00;;;;;;;;;1.00;0.00;;;;;23.54;49.98;100613.69;4939453;28;45594;-41
2023/09/20 02:42:26;;;;;;;;;2.00;1.00;;;;;23.53;49.85;100593.53;4938906;28;46166;-40
2023/09/20 02:44:55;;;;;;;;;1.25;1.00;;;;;23.52;50.26;100594.47;4939149;28;45328;-39
2023/09/20 02:47:24;;;;;;;;;0.00;0.00;;;;;23.51;50.02;100598.91;4939513;28;45406;-42
2023/09/20 02:49:49;;;;;;;;;0.75;0.75;;;;;23.50;49.90;100604.31;4939247;28;45335;-41
2023/09/20 02:52:17;;;;;;;;;0.00;0.00;;;;;23.47;50.32;100603.56;4938950;28;45906;-41
2023/09/20 02:54:43;;;;;;;;;0.00;0.00;;;;;23.48;49.88;100596.50;4938697;28;45325;-40
2023/09/20 02:57:12;;;;;;;;;0.75;0.00;;;;;23.49;49.93;100607.91;4939007;28;45514;-39
2023/09/20 02:59:41;;;;;;;;;0.00;0.00;;;;;23.49;50.46;100602.63;4938937;28;45250;-39
2023/09/20 03:02:06;;;;;;;;;1.00;0.00;;;;;23.46;50.16;100599.22;4938729;28;47123;-39
2023/09/20 03:04:32;;;;;;;;;1.00;1.00;;;;;23.47;50.01;100600.94;4940614;28;45267;-37
2023/09/20 03:06:57;;;;;;;;;3.00;0.00;;;;;23.48;50.37;100596.50;4958206;28;45469;-41
2023/09/20 03:09:26;;;;;;;;;0.50;0.50;;;;;23.47;50.48;100595.63;4958531;28;45514;-39
2023/09/20 03:11:51;;;;;;;;;1.00;1.00;;;;;23.48;50.59;100588.56;4956713;28;45477;-41
2023/09/20 03:14:17;;;;;;;;;1.00;0.50;;;;;23.47;50.02;100579.78;4958051;28;45272;-38
2023/09/20 03:16:44;;;;;;;;;0.00;0.00;;;;;23.45;50.28;100572.91;4957429;28;45326;-44
2023/09/20 03:19:09;;;;;;;;;1.00;1.00;;;;;23.44;50.14;100572.03;4958207;28;45516;-44
2023/09/20 03:21:35;;;;;;;;;1.00;0.00;;;;;23.42;50.54;100573.97;4957532;28;46158;-42
2023/09/20 03:24:02;;;;;;;;;0.00;0.00;;;;;23.39;50.40;100568.91;4957929;28;45807;-41
2023/09/20 03:26:32;;;;;;;;;0.25;0.25;;;;;23.38;50.88;100569.84;4957835;28;45418;-41
2023/09/20 03:28:57;;;;;;;;;0.25;0.25;;;;;23.38;50.82;100564.56;4958308;28;45602;-37
2023/09/20 03:31:23;;;;;;;;;0.00;0.00;;;;;23.36;50.95;100549.78;4957995;28;47058;-41
2023/09/20 03:33:48;;;;;;;;;0.00;0.00;;;;;23.35;50.80;100553.38;4957526;28;45425;-42
2023/09/20 03:36:15;;;;;;;;;0.00;0.00;;;;;23.34;50.69;100551.69;4957449;28;48794;-40
2023/09/20 03:38:41;;;;;;;;;0.00;0.00;;;;;23.34;50.41;100557.78;4957557;28;45289;-41
2023/09/20 03:41:07;;;;;;;;;0.00;0.00;;;;;23.34;50.93;100541.09;4957536;28;46016;-40
2023/09/20 03:43:33;;;;;;;;;0.25;0.25;;;;;23.34;51.08;100541.09;4957065;28;45438;-40
2023/09/20 03:46:01;;;;;;;;;0.50;0.00;;;;;23.34;50.52;100533.16;4957581;28;45357;-41
2023/09/20 03:48:26;;;;;;;;;0.25;0.00;;;;;23.36;50.53;100533.91;4957931;28;45536;-43
2023/09/20 03:50:52;;;;;;;;;0.00;0.00;;;;;23.36;50.59;100533.91;4956999;28;46137;-39
2023/09/20 03:53:17;;;;;;;;;2.00;0.50;;;;;23.36;50.59;100529.44;4956645;28;64177;-44
2023/09/20 03:55:45;;;;;;;;;1.00;0.25;;;;;23.36;50.45;100526.81;4955498;28;51387;-42
2023/09/20 03:58:11;;;;;;;;;0.75;0.75;;;;;23.35;50.81;100527.75;4957589;28;45819;-42
2023/09/20 04:00:38;;;;;;;;;0.75;0.00;;;;;23.34;51.01;100526.06;4956912;28;46488;-43
2023/09/20 04:03:12;;;;;;;;;1.00;0.00;;;;;23.31;51.14;100526.31;4957285;28;45314;-42
2023/09/20 04:05:38;;;;;;;;;1.50;0.00;;;;;23.29;50.87;100520.28;4957216;28;45365;-45
2023/09/20 04:08:06;;;;;;;;;0.25;0.00;;;;;23.25;51.47;100527.59;4957425;28;45323;-44
2023/09/20 04:10:31;;;;;;;;;0.25;0.00;;;;;23.22;51.12;100516.38;4956804;28;46060;-41
2023/09/20 04:12:57;;;;;;;;;0.00;0.00;;;;;23.17;51.05;100509.59;4957310;28;45469;-43
2023/09/20 04:15:24;;;;;;;;;0.50;0.50;;;;;23.18;51.50;100513.06;4957204;28;45381;-43
2023/09/20 04:17:50;;;;;;;;;0.25;0.25;;;;;23.16;51.49;100510.56;4957276;28;45923;-41
2023/09/20 04:20:20;;;;;;;;;1.00;1.00;;;;;23.19;51.42;100512.16;4956866;28;46193;-42
2023/09/20 04:22:46;;;;;;;;;0.00;0.00;;;;;23.20;51.04;100515.66;4956645;28;45668;-40
2023/09/20 04:25:11;;;;;;;;;1.00;1.00;;;;;23.20;51.01;100511.19;4939809;28;45288;-39
2023/09/20 04:27:36;;;;;;;;;0.00;0.00;;;;;23.19;50.97;100506.88;4956043;28;45225;-40
2023/09/20 04:30:03;;;;;;;;;1.00;0.00;;;;;23.20;51.37;100503.28;4956811;28;46328;-40
2023/09/20 04:32:29;;;;;;;;;0.00;0.00;;;;;23.20;51.50;100502.44;4957188;28;45266;-42
2023/09/20 04:34:56;;;;;;;;;1.00;1.00;;;;;23.18;51.08;100499.84;4956666;28;45403;-42
2023/09/20 04:37:23;;;;;;;;;1.75;0.50;;;;;23.17;51.10;100493.75;4956999;28;45638;-39
2023/09/20 04:39:49;;;;;;;;;1.50;0.00;;;;;23.16;51.32;100486.75;4956466;28;47291;-45
2023/09/20 04:42:14;;;;;;;;;0.00;0.00;;;;;23.14;50.98;100488.66;4956685;28;45743;-46
2023/09/20 04:44:41;;;;;;;;;1.00;1.00;;;;;23.14;51.61;100483.38;4956360;28;46661;-43
2023/09/20 04:47:06;;;;;;;;;1.00;1.00;;;;;23.15;51.58;100484.25;4957141;28;45247;-44
2023/09/20 04:49:32;;;;;;;;;1.00;1.00;;;;;23.14;51.71;100482.53;4956366;28;45249;-43
2023/09/20 04:52:00;;;;;;;;;3.00;1.00;;;;;23.12;51.39;100484.44;4956901;28;45260;-48
2023/09/20 04:54:26;;;;;;;;;2.00;1.00;;;;;23.09;51.40;100469.66;4955978;28;45885;-44
2023/09/20 04:56:53;;;;;;;;;2.00;1.00;;;;;23.09;51.75;100468.81;4956646;28;45533;-43
2023/09/20 04:59:19;;;;;;;;;0.00;0.00;;;;;23.08;51.31;100475.03;4956345;28;47185;-40
2023/09/20 05:01:44;;;;;;;;;1.00;1.00;;;;;23.08;51.72;100469.75;4956154;28;45526;-41
2023/09/20 05:04:13;;;;;;;;;0.25;0.25;;;;;23.08;51.39;100473.25;4955264;28;45498;-44
2023/09/20 05:06:40;;;;;;;;;0.00;0.00;;;;;23.09;51.50;100471.44;4956598;28;45653;-43
2023/09/20 05:09:06;;;;;;;;;0.00;0.00;;;;;23.10;51.37;100471.31;4956127;28;47453;-42
2023/09/20 05:11:31;;;;;;;;;2.00;1.00;;;;;23.12;51.60;100477.34;4956121;28;45480;-40
2023/09/20 05:13:56;;;;;;;;;0.25;0.25;;;;;23.10;51.12;100471.31;4956663;28;45473;-40
2023/09/20 05:16:22;;;;;;;;;1.00;0.50;;;;;23.12;51.57;100469.41;4957001;28;45577;-43
2023/09/20 05:18:48;;;;;;;;;1.25;1.00;;;;;23.12;51.49;100469.41;4956614;28;46000;-41
2023/09/20 05:21:13;;;;;;;;;6.75;6.50;;;;;23.11;51.33;100467.72;4956814;28;45524;-39
2023/09/20 05:23:40;;;;;;;;;15.00;15.00;;;;;23.10;51.83;100468.69;4956505;28;45461;-39
2023/09/20 05:26:06;;;;;;;;;17.00;14.00;;;;;23.11;51.79;100470.38;4956863;28;45378;-43
2023/09/20 05:28:31;;;;;;;;;16.75;15.00;;;;;23.13;51.37;100476.41;4956767;28;45788;-40
2023/09/20 05:30:57;;;;;;;;;12.00;12.00;;;;;23.12;51.42;100474.72;4956948;28;45359;-41
2023/09/20 05:33:23;;;;;;;;;11.75;10.00;;;;;23.10;51.55;100479.25;4956615;28;45239;-39
2023/09/20 05:35:49;;;;;;;;;7.00;7.00;;;;;23.09;51.53;100482.88;4956912;28;45183;-38
2023/09/20 05:38:17;;;;;;;;;6.00;5.00;;;;;23.09;51.28;100474.09;4956532;28;46332;-42
2023/09/20 05:40:43;;;;;;;;;4.00;4.00;;;;;23.06;51.44;100484.88;4959533;28;45498;-39
2023/09/20 05:43:08;;;;;;;;;6.00;5.00;;;;;23.04;51.83;100485.00;4959959;28;45413;-40
2023/09/20 05:45:35;;;;;;;;;4.75;4.75;;;;;23.01;52.04;100480.78;4960146;28;45457;-39
2023/09/20 05:48:01;;;;;;;;;6.00;4.00;;;;;23.01;51.41;100477.28;4959799;28;46822;-45
2023/09/20 05:50:33;;;;;;;;;5.00;3.00;;;;;23.00;52.23;100478.22;4959812;28;45395;-41
2023/09/20 05:53:07;;;;;;;;;2.75;2.75;;;;;23.00;51.36;100478.22;4959979;28;45358;-38
2023/09/20 05:55:36;;;;;;;;;2.50;2.50;;;;;22.99;51.88;100468.59;4960344;28;45326;-41
2023/09/20 05:58:02;;;;;;;;;2.00;2.00;;;;;22.98;51.61;100474.88;4960003;28;45537;-38
2023/09/20 06:00:29;;;;;;;;;3.25;2.50;;;;;22.95;51.46;100468.00;4958289;28;45870;-42
2023/09/20 06:02:57;;;;;;;;;1.00;1.00;;;;;22.93;51.83;100458.50;4959464;28;45236;-38
2023/09/20 06:05:26;;;;;;;;;3.00;2.00;;;;;22.94;51.56;100454.91;4942250;28;45348;-42
2023/09/20 06:07:53;;;;;;;;;3.25;2.00;;;;;22.93;52.16;100453.22;4959306;28;46000;-38
2023/09/20 06:10:19;;;;;;;;;1.00;1.00;;;;;22.92;52.01;100443.59;4959431;28;45236;-42
2023/09/20 06:12:45;;;;;;;;;3.25;1.00;;;;;22.90;52.09;100442.84;4959375;28;45477;-42
2023/09/20 06:15:13;;;;;;;;;2.00;2.00;;;;;22.85;52.01;100436.13;4959659;28;45520;-42
2023/09/20 06:17:39;;;;;;;;;1.50;1.25;;;;;22.83;51.98;100445.94;4959305;28;45435;-37
2023/09/20 06:20:08;;;;;;;;;1.00;1.00;;;;;22.80;52.26;100437.41;4959494;28;45840;-39
2023/09/20 06:22:34;;;;;;;;;1.00;1.00;;;;;22.76;52.16;100436.78;4959559;28;45335;-39
2023/09/20 06:25:01;;;;;;;;;1.00;1.00;;;;;22.74;52.05;100436.03;4959655;28;45289;-37
2023/09/20 06:27:30;;;;;;;;;2.00;1.00;;;;;22.71;52.17;100446.81;4941607;28;48186;-40
2023/09/20 06:29:59;;;;;;;;;2.00;1.25;;;;;22.73;52.16;100446.69;4959107;28;45327;-41
2023/09/20 06:32:24;;;;;;;;;2.25;1.50;;;;;22.74;52.40;100449.25;4959320;28;45394;-40
2023/09/20 06:34:50;;;;;;;;;1.00;1.00;;;;;22.78;52.09;100447.22;4959456;28;45316;-40
2023/09/20 06:37:16;;;;;;;;;3.00;0.00;;;;;22.79;51.92;100447.09;4959000;28;45422;-40
2023/09/20 06:39:44;;;;;;;;;0.25;0.25;;;;;22.79;52.12;100447.09;4958974;28;45507;-43
2023/09/20 06:42:12;;;;;;;;;3.00;1.00;;;;;22.79;52.29;100462.97;4958906;28;45420;-47
2023/09/20 06:44:41;;;;;;;;;1.25;1.25;;;;;22.79;52.33;100456.84;4959170;28;45338;-37
2023/09/20 06:47:08;;;;;;;;;1.25;1.25;;;;;22.80;51.85;100451.44;4958769;28;45412;-39
2023/09/20 06:49:34;;;;;;;;;1.00;1.00;;;;;22.78;52.25;100442.78;4959054;28;45449;-38
2023/09/20 06:52:03;;;;;;;;;1.00;1.00;;;;;22.79;52.26;100457.66;4957884;28;45327;-39
2023/09/20 06:54:29;;;;;;;;;1.75;1.00;;;;;22.79;52.47;100459.47;4957767;28;45484;-37
2023/09/20 06:57:02;;;;;;;;;1.00;1.00;;;;;22.78;52.23;100460.44;4958586;28;46304;-38
2023/09/20 06:59:27;;;;;;;;;1.00;1.00;;;;;22.75;52.05;100456.22;4958586;28;45729;-37
2023/09/20 07:01:55;;;;;;;;;1.00;1.00;;;;;22.73;52.69;100455.47;4958770;28;45405;-38
2023/09/20 07:04:20;;;;;;;;;4.50;2.00;;;;;22.74;52.46;100448.38;4958814;28;45695;-37
2023/09/20 07:06:46;;;;;;;;;1.00;1.00;;;;;22.73;52.09;100442.28;4958529;28;45941;-39
2023/09/20 07:09:12;;;;;;;;;2.25;2.00;;;;;22.73;52.24;100449.34;4958384;28;45472;-40
2023/09/20 07:11:37;;;;;;;;;1.25;1.25;;;;;22.70;52.24;100448.63;4958928;28;45405;-38
2023/09/20 07:14:05;;;;;;;;;0.75;0.75;;;;;22.68;52.17;100453.16;4958467;28;45333;-37
2023/09/20 07:16:33;;;;;;;;;1.00;1.00;;;;;22.68;52.24;100460.22;4958243;28;45563;-44
2023/09/20 07:19:04;;;;;;;;;1.50;1.50;;;;;22.67;52.70;100459.41;4958277;28;45597;-44
2023/09/20 07:21:29;;;;;;;;;2.00;2.00;;;;;22.66;52.40;100449.78;4958669;28;45357;-40
2023/09/20 07:23:54;;;;;;;;;1.50;1.50;;;;;22.67;52.57;100462.03;4958540;28;45316;-39
2023/09/20 07:26:25;;;;;;;;;2.50;1.00;;;;;22.65;52.64;100457.81;4958242;28;46098;-42
2023/09/20 07:28:51;;;;;;;;;3.50;2.00;;;;;22.63;52.54;100450.00;4956855;28;45375;-40
2023/09/20 07:31:20;;;;;;;;;1.00;1.00;;;;;22.63;52.73;100454.44;4958296;28;45290;-38
2023/09/20 07:33:45;;;;;;;;;2.25;1.25;;;;;22.62;52.54;100460.69;4958524;28;45358;-40
2023/09/20 07:36:11;;;;;;;;;1.00;1.00;;;;;22.62;52.87;100455.38;4957801;28;51405;-39
2023/09/20 07:38:36;;;;;;;;;1.75;1.00;;;;;22.63;52.69;100454.44;4958348;28;45225;-43
2023/09/20 07:41:12;;;;;;;;;3.00;2.00;;;;;22.64;52.73;100453.50;4957814;28;47365;-39
2023/09/20 07:43:38;;;;;;;;;2.00;2.00;;;;;22.67;52.16;100453.25;4941110;28;45462;-37
2023/09/20 07:46:06;;;;;;;;;2.50;1.50;;;;;22.67;52.61;100447.97;4957977;28;45449;-37
2023/09/20 07:48:33;;;;;;;;;1.25;1.00;;;;;22.68;52.62;100449.66;4957956;28;45323;-38
2023/09/20 07:50:59;;;;;;;;;4.00;2.00;;;;;22.70;52.75;100450.41;4945498;28;45265;-41
2023/09/20 07:53:26;;;;;;;;;3.00;2.00;;;;;22.69;52.82;100439.00;4938149;28;45519;-42
2023/09/20 07:56:03;;;;;;;;;1.00;1.00;;;;;22.74;52.38;100437.81;4937621;28;47048;-45
2023/09/20 07:58:32;;;;;;;;;2.00;0.75;;;;;22.76;52.23;100436.78;4936842;28;45702;-44
2023/09/20 08:00:58;;;;;;;;;1.00;1.00;;;;;22.78;52.16;100429.56;4938487;28;45456;-39
2023/09/20 08:03:24;;;;;;;;;1.00;1.00;;;;;22.79;52.08;100431.25;4921147;28;45501;-38
2023/09/20 08:05:50;;;;;;;;;1.00;1.00;;;;;22.79;52.48;100430.41;4938190;28;45418;-39
2023/09/20 08:08:16;;;;;;;;;2.00;2.00;;;;;22.80;52.42;100432.13;4938258;28;45645;-41
2023/09/20 08:10:43;;;;;;;;;2.00;1.00;;;;;22.81;52.09;100426.72;4938454;28;45411;-37
2023/09/20 08:13:09;;;;;;;;;2.00;2.00;;;;;22.83;52.06;100438.00;4938845;28;45238;-46
2023/09/20 08:15:44;;;;;;;;;1.25;1.25;;;;;22.85;52.12;100440.53;4937551;28;46975;-40
2023/09/20 08:20:58;;;;;;;;;1.50;1.25;;;;;22.89;52.25;100431.44;4937831;28;45998;-40
2023/09/20 13:34:53;;;;;;;;;2.75;2.75;;;;;24.07;45.92;100106.00;5812610;23;46418;-54
2023/09/20 13:37:19;;;;;;;;;2.00;2.00;;;;;24.06;45.89;100088.44;4940992;28;45489;-54
2023/09/20 13:39:44;;;;;;;;;2.00;2.00;;;;;24.07;45.57;100087.47;4940896;28;45228;-53
2023/09/20 13:42:10;;;;;;;;;2.00;2.00;;;;;24.05;46.20;100089.41;4940456;28;45421;-54
2023/09/20 13:44:36;;;;;;;;;2.25;2.00;;;;;24.08;45.57;100086.50;4923453;28;45383;-53
2023/09/20 13:47:06;;;;;;;;;3.00;2.00;;;;;24.08;45.61;100083.00;4940782;28;45391;-56
2023/09/20 13:49:32;;;;;;;;;2.00;2.00;;;;;24.08;45.81;100078.56;4940844;28;45204;-54
2023/09/20 13:51:57;;;;;;;;;4.00;2.75;;;;;24.08;45.69;100081.22;4940406;28;45235;-56
2023/09/20 13:54:23;;;;;;;;;2.00;2.00;;;;;24.11;46.27;100068.66;4940470;28;50078;-56
2023/09/20 13:56:48;;;;;;;;;2.00;2.00;;;;;24.13;45.78;100074.69;4940590;28;45280;-53
2023/09/20 13:59:15;;;;;;;;;2.25;2.25;;;;;24.12;45.54;100062.41;4939498;28;45268;-54
2023/09/20 14:01:41;;;;;;;;;2.00;2.00;;;;;24.12;46.26;100065.06;4938650;28;47563;-55
2023/09/20 14:04:07;;;;;;;;;3.50;2.00;;;;;24.12;46.25;100055.31;4940269;28;45247;-53
2023/09/20 14:06:32;;;;;;;;;1.50;1.50;;;;;24.12;45.73;100050.03;4940323;28;45402;-52
2023/09/20 14:08:57;;;;;;;;;1.00;1.00;;;;;24.14;46.37;100047.25;4940486;28;45539;-55
2023/09/20 14:11:23;;;;;;;;;3.50;2.00;;;;;24.14;45.88;100052.53;4940375;28;46222;-56
2023/09/20 14:13:48;;;;;;;;;1.75;1.75;;;;;24.13;46.17;100046.41;4940202;28;45323;-54
2023/09/20 14:16:14;;;;;;;;;3.25;1.25;;;;;24.15;45.82;100035.69;4940289;28;45406;-55
2023/09/20 14:18:40;;;;;;;;;5.25;2.00;;;;;24.14;46.44;100044.59;4940487;28;45382;-55
2023/09/20 14:21:05;;;;;;;;;1.50;1.00;;;;;24.14;45.90;100034.00;4939899;28;46186;-53
2023/09/20 14:23:31;;;;;;;;;2.50;2.00;;;;;24.14;46.25;100031.34;4939993;28;45399;-56
2023/09/20 14:25:56;;;;;;;;;2.00;2.00;;;;;24.15;45.70;100027.75;4922849;28;45356;-57
2023/09/20 14:28:22;;;;;;;;;3.00;1.25;;;;;24.14;45.52;100024.28;4940601;28;45577;-54
2023/09/20 14:30:48;;;;;;;;;1.00;1.00;;;;;24.13;45.54;100014.66;4922584;28;46865;-54
2023/09/20 14:33:14;;;;;;;;;2.00;2.00;;;;;24.14;45.97;99999.59;4939927;28;45295;-53
2023/09/20 14:35:40;;;;;;;;;2.00;2.00;;;;;24.12;45.80;100007.66;4939761;28;45381;-53
2023/09/20 14:38:05;;;;;;;;;1.50;1.50;;;;;24.14;45.76;100010.19;4940053;28;45505;-56
2023/09/20 14:40:32;;;;;;;;;4.00;2.00;;;;;24.15;45.59;99999.44;4939782;28;46067;-49
2023/09/20 14:42:58;;;;;;;;;1.75;1.75;;;;;24.15;45.66;100001.28;4939693;28;45692;-54
2023/09/20 14:45:31;;;;;;;;;2.00;2.00;;;;;24.14;45.91;99989.84;4940297;28;45302;-54
2023/09/20 14:47:59;;;;;;;;;3.00;3.00;;;;;24.15;46.05;99988.84;4940411;28;45386;-56
2023/09/20 14:50:25;;;;;;;;;2.00;2.00;;;;;24.15;46.07;99988.84;4940063;28;46215;-55
2023/09/20 14:52:53;;;;;;;;;1.00;1.00;;;;;24.15;45.97;99993.31;4939867;28;45710;-54
2023/09/20 14:55:20;;;;;;;;;2.50;1.25;;;;;24.16;45.49;99987.88;4940037;28;45287;-54
2023/09/20 14:57:47;;;;;;;;;2.50;2.00;;;;;24.16;45.97;99984.41;4922680;28;45578;-55
2023/09/20 15:00:18;;;;;;;;;2.00;2.00;;;;;24.17;45.65;99967.56;4939561;28;45288;-56
2023/09/20 15:02:50;;;;;;;;;1.50;1.00;;;;;24.17;45.59;99980.81;4939563;28;45191;-58
2023/09/20 15:05:19;;;;;;;;;2.00;2.00;;;;;24.18;46.10;99969.25;4939515;28;45228;-56
2023/09/20 15:07:53;;;;;;;;;2.25;2.25;;;;;24.18;46.15;99958.66;4939729;28;45524;-54
2023/09/20 15:10:20;;;;;;;;;1.75;1.75;;;;;24.18;46.12;99959.47;4939214;28;46985;-56
2023/09/20 15:12:52;;;;;;;;;1.00;1.00;;;;;24.19;46.05;99960.34;4921480;28;45659;-56
2023/09/20 15:15:22;;;;;;;;;1.00;1.00;;;;;24.17;45.90;99946.38;4922204;28;45348;-56
2023/09/20 15:17:48;;;;;;;;;1.25;1.00;;;;;24.20;45.46;99951.41;4939564;28;45644;-55
2023/09/20 15:20:14;;;;;;;;;1.00;1.00;;;;;24.20;45.49;99932.88;4939054;28;46254;-58
2023/09/20 15:22:40;;;;;;;;;2.00;2.00;;;;;24.19;46.13;99937.34;4939278;28;45542;-55
2023/09/20 15:25:06;;;;;;;;;2.25;2.25;;;;;24.19;46.03;99923.28;4939581;28;45349;-54
2023/09/20 15:27:33;;;;;;;;;1.25;1.25;;;;;24.19;45.87;99923.28;4939547;28;45362;-56
2023/09/20 15:30:05;;;;;;;;;2.50;2.00;;;;;24.19;45.76;99925.91;4938194;28;46275;-56
2023/09/20 15:32:30;;;;;;;;;2.00;2.00;;;;;24.19;45.58;99916.16;4938160;28;45721;-54
2023/09/20 15:34:57;;;;;;;;;1.75;1.75;;;;;24.20;46.00;99916.97;4939294;28;45450;-57
2023/09/20 15:37:24;;;;;;;;;2.75;2.25;;;;;24.19;46.20;99896.78;4939257;28;45553;-53
2023/09/20 15:39:50;;;;;;;;;1.25;1.25;;;;;24.20;46.01;99898.44;4921502;28;46148;-56
2023/09/20 15:42:16;;;;;;;;;2.00;1.25;;;;;24.18;45.94;99890.66;4938642;28;45493;-56
2023/09/20 15:44:49;;;;;;;;;2.00;2.00;;;;;24.19;45.95;99878.25;4938828;28;45412;-51
2023/09/20 15:47:15;;;;;;;;;4.00;2.00;;;;;24.20;45.41;99882.56;4938975;28;45405;-54
2023/09/20 15:49:41;;;;;;;;;3.00;2.00;;;;;24.20;45.95;99898.44;4938607;28;45562;-53
2023/09/20 15:52:06;;;;;;;;;1.25;1.25;;;;;24.19;46.14;99872.97;4938589;28;45437;-51
2023/09/20 15:54:32;;;;;;;;;1.00;1.00;;;;;24.22;45.23;99885.91;4938351;28;49361;-53
2023/09/20 15:56:57;;;;;;;;;2.50;2.00;;;;;24.19;45.70;99863.19;4939169;28;45263;-52
2023/09/20 15:59:23;;;;;;;;;3.00;3.00;;;;;24.21;45.85;99873.66;4938386;28;45426;-53
2023/09/20 16:01:48;;;;;;;;;1.50;1.50;;;;;24.21;45.39;99869.22;4938538;28;45550;-53
2023/09/20 16:04:13;;;;;;;;;1.50;1.50;;;;;24.21;45.35;99869.22;4938035;28;55934;-56
2023/09/20 16:06:39;;;;;;;;;1.00;1.00;;;;;24.22;45.65;99873.53;4937398;28;45460;-53
2023/09/20 16:09:04;;;;;;;;;2.25;1.00;;;;;24.23;45.75;99874.38;4938341;28;46124;-54
2023/09/20 16:11:30;;;;;;;;;1.00;1.00;;;;;24.24;45.68;99873.41;4938543;28;45453;-52
2023/09/20 16:13:56;;;;;;;;;1.00;1.00;;;;;24.25;45.10;99869.78;4938482;28;45222;-55
2023/09/20 16:16:22;;;;;;;;;1.00;1.00;;;;;24.27;45.02;99853.75;4938599;28;45557;-53
2023/09/20 16:18:49;;;;;;;;;2.00;2.00;;;;;24.28;45.03;99866.88;4938097;28;45513;-47
2023/09/20 16:21:15;;;;;;;;;1.00;1.00;;;;;24.25;45.09;99851.25;4937833;28;45220;-53
2023/09/20 16:23:40;;;;;;;;;2.25;2.25;;;;;24.28;45.44;99850.97;4938289;28;45456;-51
2023/09/20 16:26:06;;;;;;;;;1.00;1.00;;;;;24.30;45.11;99857.00;4938409;28;45577;-53
2023/09/20 16:28:31;;;;;;;;;3.25;2.25;;;;;24.30;45.18;99851.69;4938314;28;46221;-52
2023/09/20 16:30:57;;;;;;;;;2.75;2.00;;;;;24.31;44.74;99841.94;4938148;28;45406;-54
2023/09/20 16:33:27;;;;;;;;;1.25;1.25;;;;;24.30;45.11;99840.25;4937735;28;45794;-56
2023/09/20 16:35:55;;;;;;;;;1.00;1.00;;;;;24.31;45.36;99837.47;4937365;28;45569;-55
2023/09/20 16:38:20;;;;;;;;;1.00;1.00;;;;;24.32;45.63;99835.66;4937121;28;46181;-55
2023/09/20 16:40:46;;;;;;;;;3.00;1.25;;;;;24.33;45.42;99835.50;4937178;28;45390;-54